Time;durP1;ratioP1;P1;durP2;ratioP2;P2;SDS_P1;SDS_P2;PMS_P1;PMS_P2;Temp;Humidity;BMP_temperature;BMP_pressure;BME280_temperature;BME280_humidity;BME280_pressure;Samples;Min_cycle;Max_cycle;Signal;HPM_P1;HPM_P2
2022/01/04 00:00:37;;;;;;;7.57;2.75;;;11.10;99.90;;;;;;2080829;28;20021;-72
2022/01/04 00:01:38;;;;;;;6.90;2.90;;;11.10;99.90;;;;;;2083264;28;20178;-72
2022/01/04 00:02:39;;;;;;;4.93;2.40;;;11.10;99.90;;;;;;2079640;28;20145;-72
2022/01/04 00:03:40;;;;;;;4.35;2.10;;;11.10;99.90;;;;;;2079970;28;20423;-72
2022/01/04 00:04:41;;;;;;;6.95;2.50;;;11.10;99.90;;;;;;2088397;28;20025;-72
2022/01/04 00:05:42;;;;;;;6.43;2.30;;;11.10;99.90;;;;;;2080758;28;20049;-73
2022/01/04 00:06:45;;;;;;;5.32;2.25;;;11.10;99.90;;;;;;2085996;28;20060;-72
2022/01/04 00:07:45;;;;;;;8.60;2.97;;;11.10;99.90;;;;;;2082997;28;20079;-72
2022/01/04 00:08:46;;;;;;;3.72;2.25;;;11.10;99.90;;;;;;2089941;28;20599;-72
2022/01/04 00:09:46;;;;;;;5.40;2.35;;;11.10;99.90;;;;;;2085456;28;20027;-72
2022/01/04 00:10:47;;;;;;;4.32;2.10;;;11.10;99.90;;;;;;2089120;28;20029;-72
2022/01/04 00:14:11;;;;;;;7.43;2.67;;;11.10;99.90;;;;;;2081253;28;20488;-72
2022/01/04 00:15:12;;;;;;;4.95;2.42;;;11.00;99.90;;;;;;2073591;28;20470;-73
2022/01/04 00:16:12;;;;;;;5.22;2.20;;;11.00;99.90;;;;;;2076836;28;20428;-72
2022/01/04 00:17:13;;;;;;;4.13;2.28;;;11.00;99.90;;;;;;2081438;28;20033;-72
2022/01/04 00:18:15;;;;;;;7.10;2.10;;;11.00;99.90;;;;;;2081161;28;20026;-72
2022/01/04 00:19:15;;;;;;;4.43;1.70;;;11.00;99.90;;;;;;2083185;28;20075;-72
2022/01/04 00:20:16;;;;;;;4.38;2.22;;;11.00;99.90;;;;;;2086043;28;20037;-72
2022/01/04 00:21:16;;;;;;;5.45;1.60;;;11.00;99.90;;;;;;2081718;28;20064;-72
2022/01/04 00:22:17;;;;;;;5.95;2.00;;;10.90;99.90;;;;;;2081282;28;20025;-72
2022/01/04 00:23:18;;;;;;;4.05;1.90;;;10.90;99.90;;;;;;2080950;28;20408;-72
2022/01/04 00:24:18;;;;;;;4.05;2.10;;;10.90;99.90;;;;;;2072202;28;20560;-72
2022/01/04 00:25:19;;;;;;;3.97;1.80;;;10.90;99.90;;;;;;2081193;28;20366;-72
2022/01/04 00:26:19;;;;;;;5.15;1.98;;;10.80;99.90;;;;;;2089053;28;20041;-72
2022/01/04 00:27:20;;;;;;;5.05;1.70;;;10.80;99.90;;;;;;2088809;28;20604;-72
2022/01/04 00:28:21;;;;;;;3.38;1.65;;;10.80;99.90;;;;;;2088836;28;20056;-72
2022/01/04 00:29:21;;;;;;;3.20;1.70;;;10.80;99.90;;;;;;2089130;28;20025;-72
2022/01/04 00:30:28;;;;;;;2.70;1.65;;;10.80;99.90;;;;;;2081251;28;20466;-72
2022/01/04 00:31:29;;;;;;;3.75;1.58;;;10.80;99.90;;;;;;2080753;28;20026;-72
2022/01/04 00:32:30;;;;;;;3.28;1.27;;;10.70;99.90;;;;;;2080776;28;20052;-72
2022/01/04 00:33:30;;;;;;;2.75;1.35;;;10.70;99.90;;;;;;2081450;28;20017;-72
2022/01/04 00:34:31;;;;;;;2.25;1.30;;;10.70;99.90;;;;;;2082730;28;20067;-72
2022/01/04 00:35:32;;;;;;;2.65;1.05;;;10.70;99.90;;;;;;2083238;28;20091;-72
2022/01/04 00:36:33;;;;;;;3.90;1.27;;;10.70;99.90;;;;;;2082949;28;20030;-72
2022/01/04 00:37:33;;;;;;;4.07;1.85;;;10.70;99.90;;;;;;2083321;28;20028;-72
2022/01/04 00:38:34;;;;;;;4.32;1.10;;;10.70;99.90;;;;;;2083164;28;20017;-72
2022/01/04 00:39:35;;;;;;;4.53;1.30;;;10.70;99.90;;;;;;2098819;28;20032;-72
2022/01/04 00:40:36;;;;;;;3.10;1.10;;;10.70;99.90;;;;;;2097053;28;20119;-72
2022/01/04 00:41:37;;;;;;;2.75;1.17;;;10.70;99.90;;;;;;2091545;28;20033;-72
2022/01/04 00:42:37;;;;;;;5.07;1.13;;;10.70;99.90;;;;;;2091199;28;20491;-72
2022/01/04 00:43:38;;;;;;;4.50;1.75;;;10.70;99.90;;;;;;2086141;28;20032;-72
2022/01/04 00:44:39;;;;;;;4.32;1.48;;;10.70;99.90;;;;;;2083091;28;20143;-72
2022/01/04 00:45:39;;;;;;;3.95;1.17;;;10.70;99.90;;;;;;2082750;28;20105;-72
2022/01/04 00:46:40;;;;;;;3.10;1.63;;;10.70;99.90;;;;;;2082767;28;20048;-72
2022/01/04 00:49:09;;;;;;;1.95;1.40;;;10.70;99.90;;;;;;2083530;28;20129;-72
2022/01/04 00:49:10;;;;;;;;;;;10.70;99.90;;;;;;2083321;28;20041;-72
2022/01/04 00:50:11;;;;;;;4.20;1.30;;;10.60;99.90;;;;;;2083334;28;19908;-72
2022/01/04 00:51:13;;;;;;;3.65;1.65;;;10.60;99.90;;;;;;2083105;28;20025;-72
2022/01/04 00:52:16;;;;;;;2.95;1.40;;;10.60;99.90;;;;;;2082917;28;20067;-72
2022/01/04 00:53:17;;;;;;;4.18;1.73;;;10.60;99.90;;;;;;2083808;28;20409;-72
2022/01/04 00:54:19;;;;;;;2.22;1.67;;;10.70;99.90;;;;;;2084718;28;20022;-72
2022/01/04 00:55:20;;;;;;;5.07;1.90;;;10.70;99.90;;;;;;2090462;28;20025;-72
2022/01/04 00:56:21;;;;;;;1.75;1.10;;;10.70;99.90;;;;;;2090667;28;20029;-72
2022/01/04 00:57:21;;;;;;;3.72;1.40;;;10.70;99.90;;;;;;2090584;28;20032;-72
2022/01/04 00:58:22;;;;;;;2.30;1.48;;;10.70;99.90;;;;;;2091262;28;20048;-72
2022/01/04 00:59:22;;;;;;;4.18;1.70;;;10.70;99.90;;;;;;2088467;28;20556;-72
2022/01/04 01:00:23;;;;;;;3.70;1.75;;;10.70;99.90;;;;;;2083884;28;20053;-72
2022/01/04 01:01:24;;;;;;;3.50;1.42;;;10.70;99.90;;;;;;2082745;28;20026;-72
2022/01/04 01:02:25;;;;;;;2.92;1.90;;;10.70;99.90;;;;;;2081822;28;20730;-72
2022/01/04 01:03:25;;;;;;;2.25;1.77;;;10.70;99.90;;;;;;2082126;28;20227;-72
2022/01/04 01:04:26;;;;;;;3.50;2.03;;;10.70;99.90;;;;;;2082033;28;20160;-72
2022/01/04 01:05:26;;;;;;;2.10;1.50;;;10.70;99.90;;;;;;2081968;28;20520;-72
2022/01/04 01:06:27;;;;;;;4.63;2.20;;;10.70;99.90;;;;;;2085605;28;20040;-72
2022/01/04 01:07:27;;;;;;;1.90;1.63;;;10.70;99.90;;;;;;2090919;28;20061;-72
2022/01/04 01:08:28;;;;;;;6.75;2.05;;;10.70;99.90;;;;;;2091336;28;20108;-72
2022/01/04 01:09:33;;;;;;;3.05;1.70;;;10.70;99.90;;;;;;2088676;28;20028;-72
2022/01/04 01:10:49;;;;;;;3.90;2.08;;;10.70;99.90;;;;;;2091126;28;20082;-72
2022/01/04 01:11:49;;;;;;;2.38;1.90;;;10.70;99.90;;;;;;2081325;28;20021;-72
2022/01/04 01:12:50;;;;;;;3.55;2.05;;;10.60;99.90;;;;;;2083013;28;20021;-72
2022/01/04 01:13:51;;;;;;;3.70;2.20;;;10.60;99.90;;;;;;2081921;28;20530;-72
2022/01/04 01:14:52;;;;;;;3.67;1.85;;;10.60;99.90;;;;;;2087633;28;20028;-72
2022/01/04 01:15:52;;;;;;;3.92;2.20;;;10.60;99.90;;;;;;2091120;28;20025;-72
2022/01/04 01:16:53;;;;;;;4.50;2.20;;;10.60;99.90;;;;;;2084164;28;20053;-72
2022/01/04 01:17:54;;;;;;;3.00;2.53;;;10.60;99.90;;;;;;2086682;28;20110;-72
2022/01/04 01:18:54;;;;;;;3.50;2.22;;;10.60;99.90;;;;;;2084402;28;20534;-72
2022/01/04 01:19:55;;;;;;;3.45;2.50;;;10.60;99.90;;;;;;2082650;28;20064;-72
2022/01/04 01:20:56;;;;;;;4.60;2.45;;;10.60;99.90;;;;;;2084922;28;20096;-72
2022/01/04 01:21:56;;;;;;;3.08;2.47;;;10.60;99.90;;;;;;2091036;28;20017;-72
2022/01/04 01:22:57;;;;;;;2.75;2.47;;;10.60;99.90;;;;;;2094020;28;20542;-72
2022/01/04 01:23:57;;;;;;;3.67;2.47;;;10.60;99.90;;;;;;2089915;28;20130;-72
2022/01/04 01:24:58;;;;;;;3.75;2.83;;;10.60;99.90;;;;;;2077494;28;20101;-72
2022/01/04 01:26:00;;;;;;;3.30;2.20;;;10.60;99.90;;;;;;2085479;28;20021;-72
2022/01/04 01:27:00;;;;;;;3.88;2.50;;;10.60;99.90;;;;;;2083041;28;20057;-72
2022/01/04 01:28:01;;;;;;;3.08;2.47;;;10.60;99.90;;;;;;2089785;28;20028;-72
2022/01/04 01:29:02;;;;;;;5.50;2.88;;;10.60;99.90;;;;;;2080950;28;20049;-72
2022/01/04 01:30:04;;;;;;;4.15;2.88;;;10.60;99.90;;;;;;2090373;28;20025;-72
2022/01/04 01:31:05;;;;;;;4.15;2.67;;;10.60;99.90;;;;;;2081782;28;20448;-72
2022/01/04 01:32:06;;;;;;;3.05;2.85;;;10.60;99.90;;;;;;2082733;28;20118;-72
2022/01/04 01:33:07;;;;;;;3.15;2.88;;;10.60;99.90;;;;;;2085497;28;20132;-72
2022/01/04 01:34:08;;;;;;;3.47;2.83;;;10.60;99.90;;;;;;2085387;28;20566;-72
2022/01/04 01:35:08;;;;;;;4.85;2.75;;;10.50;99.90;;;;;;2081654;28;20018;-72
2022/01/04 01:36:09;;;;;;;3.50;2.85;;;10.50;99.90;;;;;;2082218;28;20043;-72
2022/01/04 01:37:10;;;;;;;3.55;3.25;;;10.60;99.90;;;;;;2082498;28;20029;-72
2022/01/04 01:38:14;;;;;;;3.72;3.20;;;10.60;99.90;;;;;;2082844;28;20025;-72
2022/01/04 01:39:14;;;;;;;4.07;3.20;;;10.50;99.90;;;;;;2082460;28;20026;-72
2022/01/04 01:40:15;;;;;;;4.00;3.30;;;10.50;99.90;;;;;;2082694;28;20018;-73
2022/01/04 01:41:16;;;;;;;4.63;3.05;;;10.50;99.90;;;;;;2082473;28;20022;-72
2022/01/04 01:42:16;;;;;;;4.95;3.22;;;10.50;99.90;;;;;;2086946;28;20151;-72
2022/01/04 01:43:18;;;;;;;4.82;3.33;;;10.50;99.90;;;;;;2084469;28;20025;-72
2022/01/04 01:44:20;;;;;;;3.88;3.47;;;10.50;99.90;;;;;;2082502;28;20033;-72
2022/01/04 01:45:23;;;;;;;5.45;3.50;;;10.50;99.90;;;;;;2081936;28;20108;-72
2022/01/04 01:46:23;;;;;;;3.40;3.10;;;10.50;99.90;;;;;;2082711;28;20108;-72
2022/01/04 01:47:24;;;;;;;4.78;3.38;;;10.50;99.90;;;;;;2081668;28;20039;-72
2022/01/04 01:48:25;;;;;;;3.95;3.22;;;10.50;99.90;;;;;;2082443;28;20446;-72
2022/01/04 01:49:26;;;;;;;6.25;3.30;;;10.50;99.90;;;;;;2082538;28;20032;-72
2022/01/04 01:50:26;;;;;;;4.72;3.33;;;10.50;99.90;;;;;;2082369;28;20036;-72
2022/01/04 01:51:28;;;;;;;5.72;3.35;;;10.50;99.90;;;;;;2082577;28;20030;-72
2022/01/04 01:52:29;;;;;;;3.17;2.85;;;10.50;99.90;;;;;;2074644;28;20030;-72
2022/01/04 01:53:30;;;;;;;4.15;3.28;;;10.50;99.90;;;;;;2084870;28;20029;-72
2022/01/04 01:54:30;;;;;;;4.78;3.25;;;10.50;99.90;;;;;;2086599;28;20414;-72
2022/01/04 01:55:31;;;;;;;3.00;2.70;;;10.50;99.90;;;;;;2082424;28;20367;-72
2022/01/04 01:56:32;;;;;;;4.20;3.08;;;10.50;99.90;;;;;;2082042;28;20025;-72
2022/01/04 01:57:33;;;;;;;3.80;2.83;;;10.50;99.90;;;;;;2082436;28;20026;-72
2022/01/04 01:58:33;;;;;;;2.80;2.60;;;10.50;99.90;;;;;;2083111;28;20033;-72
2022/01/04 01:59:34;;;;;;;2.90;2.50;;;10.40;99.90;;;;;;2081538;28;20030;-72
2022/01/04 02:00:34;;;;;;;3.75;2.67;;;10.40;99.90;;;;;;2082080;28;20092;-72
2022/01/04 02:01:35;;;;;;;3.80;2.83;;;10.40;99.90;;;;;;2092709;28;20042;-72
2022/01/04 02:02:36;;;;;;;4.40;2.80;;;10.40;99.90;;;;;;2086012;28;20026;-72
2022/01/04 02:03:36;;;;;;;3.65;2.88;;;10.40;99.90;;;;;;2083932;28;20056;-72
2022/01/04 02:04:37;;;;;;;4.50;2.45;;;10.40;99.90;;;;;;2079383;28;20516;-72
2022/01/04 02:05:37;;;;;;;3.45;2.55;;;10.40;99.90;;;;;;2077923;28;20078;-71
2022/01/04 02:06:38;;;;;;;4.95;2.60;;;10.40;99.90;;;;;;2079616;28;20028;-72
2022/01/04 02:07:41;;;;;;;3.00;2.58;;;10.40;99.90;;;;;;2076055;28;20474;-72
2022/01/04 02:08:41;;;;;;;2.47;2.28;;;10.40;99.90;;;;;;2072459;28;20029;-72
2022/01/04 02:09:49;;;;;;;2.78;2.40;;;10.40;99.90;;;;;;2078630;28;20033;-72
2022/01/04 02:10:51;;;;;;;3.72;2.78;;;10.40;99.90;;;;;;2080967;28;20040;-72
2022/01/04 02:11:54;;;;;;;3.28;2.78;;;10.40;99.90;;;;;;2085078;28;20028;-72
2022/01/04 02:12:54;;;;;;;2.88;2.50;;;10.40;99.90;;;;;;2084116;28;20104;-72
2022/01/04 02:13:59;;;;;;;4.05;3.00;;;10.40;99.90;;;;;;2080557;28;20454;-72
2022/01/04 02:15:00;;;;;;;4.72;2.50;;;10.40;99.90;;;;;;2081012;28;20022;-72
2022/01/04 02:16:02;;;;;;;3.15;2.85;;;10.40;99.90;;;;;;2080377;28;20736;-72
2022/01/04 02:17:03;;;;;;;5.70;2.70;;;10.40;99.90;;;;;;2080075;28;20037;-72
2022/01/04 02:18:04;;;;;;;4.72;2.85;;;10.40;99.90;;;;;;2080393;28;20033;-72
2022/01/04 02:19:06;;;;;;;2.53;2.22;;;10.40;99.90;;;;;;2080650;28;20033;-72
2022/01/04 02:20:07;;;;;;;4.65;2.60;;;10.40;99.90;;;;;;2080536;28;20037;-73
2022/01/04 02:21:08;;;;;;;4.32;2.50;;;10.40;99.90;;;;;;2080747;28;20030;-72
2022/01/04 02:22:09;;;;;;;2.63;2.42;;;10.40;99.90;;;;;;2080953;28;20033;-72
2022/01/04 02:23:09;;;;;;;4.65;3.17;;;10.40;99.90;;;;;;2080858;28;20029;-72
2022/01/04 02:24:10;;;;;;;2.47;2.20;;;10.40;99.90;;;;;;2080597;28;20030;-72
2022/01/04 02:25:11;;;;;;;3.10;2.50;;;10.40;99.90;;;;;;2080802;28;20092;-72
2022/01/04 02:26:12;;;;;;;4.53;2.63;;;10.40;99.90;;;;;;2080652;28;20598;-72
2022/01/04 02:27:14;;;;;;;2.83;2.63;;;10.40;99.90;;;;;;2088599;28;20052;-72
2022/01/04 02:28:20;;;;;;;3.13;2.80;;;10.40;99.90;;;;;;2096626;28;20027;-72
2022/01/04 02:29:21;;;;;;;2.60;2.40;;;10.40;99.90;;;;;;2085824;28;20100;-72
2022/01/04 02:30:21;;;;;;;3.95;2.50;;;10.40;99.90;;;;;;2088312;28;20028;-72
2022/01/04 02:31:22;;;;;;;3.28;2.58;;;10.40;99.90;;;;;;2087921;28;20021;-72
2022/01/04 02:32:22;;;;;;;2.55;2.35;;;10.40;99.90;;;;;;2079767;28;20021;-72
2022/01/04 02:33:23;;;;;;;2.22;2.03;;;10.40;99.90;;;;;;2076594;28;20063;-72
2022/01/04 02:34:24;;;;;;;2.50;2.28;;;10.30;99.90;;;;;;2080457;28;20022;-72
2022/01/04 02:35:27;;;;;;;2.88;2.58;;;10.30;99.90;;;;;;2088006;28;20025;-72
2022/01/04 02:36:28;;;;;;;3.50;2.63;;;10.30;99.90;;;;;;2087462;28;20376;-72
2022/01/04 02:37:30;;;;;;;2.42;2.22;;;10.30;99.90;;;;;;2084448;28;20033;-72
2022/01/04 02:38:31;;;;;;;2.97;2.15;;;10.30;99.90;;;;;;2089227;28;20741;-72
2022/01/04 02:39:35;;;;;;;2.72;2.30;;;10.30;99.90;;;;;;2085624;28;20034;-72
2022/01/04 02:40:35;;;;;;;3.00;2.22;;;10.30;99.90;;;;;;2084122;28;20017;-72
2022/01/04 02:41:36;;;;;;;3.72;2.72;;;10.20;99.90;;;;;;2083128;28;20032;-72
2022/01/04 02:42:38;;;;;;;3.60;2.53;;;10.20;99.90;;;;;;2080646;28;20033;-72
2022/01/04 02:43:38;;;;;;;2.92;2.42;;;10.20;99.90;;;;;;2080358;28;20461;-72
2022/01/04 02:44:39;;;;;;;4.32;2.40;;;10.20;99.90;;;;;;2075857;28;20603;-72
2022/01/04 02:45:40;;;;;;;3.60;2.10;;;10.20;99.90;;;;;;2076917;28;20052;-72
2022/01/04 02:46:40;;;;;;;2.58;2.10;;;10.20;99.90;;;;;;2079806;28;20025;-73
2022/01/04 02:47:41;;;;;;;3.08;2.22;;;10.20;99.90;;;;;;2081123;28;20419;-72
2022/01/04 02:48:43;;;;;;;2.92;2.60;;;10.20;99.90;;;;;;2080355;28;20018;-71
2022/01/04 02:49:44;;;;;;;4.50;2.40;;;10.20;99.90;;;;;;2087971;28;20028;-71
2022/01/04 02:50:44;;;;;;;8.27;2.45;;;10.20;99.90;;;;;;2094696;28;20028;-72
2022/01/04 02:51:45;;;;;;;2.63;2.42;;;10.20;99.90;;;;;;2088628;28;20029;-72
2022/01/04 02:52:46;;;;;;;2.53;2.30;;;10.20;99.90;;;;;;2086859;28;20079;-72
2022/01/04 02:53:46;;;;;;;4.13;2.55;;;10.20;99.90;;;;;;2080275;28;20494;-72
2022/01/04 02:54:47;;;;;;;5.13;2.33;;;10.20;99.90;;;;;;2079798;28;20025;-72
2022/01/04 02:55:47;;;;;;;4.55;2.70;;;10.20;99.90;;;;;;2079480;28;20053;-73
2022/01/04 02:56:48;;;;;;;2.90;2.60;;;10.20;99.90;;;;;;2079170;28;20056;-72
2022/01/04 02:57:49;;;;;;;3.83;2.67;;;10.20;99.90;;;;;;2080103;28;20026;-72
2022/01/04 02:58:49;;;;;;;2.90;2.50;;;10.30;99.90;;;;;;2086820;28;20159;-72
2022/01/04 02:59:50;;;;;;;2.38;2.17;;;10.20;99.90;;;;;;2083713;28;20025;-72
2022/01/04 03:00:50;;;;;;;2.50;2.30;;;10.20;99.90;;;;;;2080401;28;20424;-72
2022/01/04 03:01:51;;;;;;;2.72;2.40;;;10.20;99.90;;;;;;2082586;28;20022;-72
2022/01/04 03:02:52;;;;;;;4.38;2.47;;;10.20;99.90;;;;;;2082968;28;20072;-72
2022/01/04 03:03:52;;;;;;;2.85;2.45;;;10.20;99.90;;;;;;2082575;28;20025;-72
2022/01/04 03:04:53;;;;;;;3.58;2.80;;;10.20;99.90;;;;;;2091958;28;20048;-72
2022/01/04 03:05:53;;;;;;;3.45;2.70;;;10.20;99.90;;;;;;2097751;28;20063;-72
2022/01/04 03:06:54;;;;;;;3.75;2.50;;;10.20;99.90;;;;;;2083307;28;20029;-72
2022/01/04 03:07:55;;;;;;;4.53;3.00;;;10.20;99.90;;;;;;2083031;28;20029;-72
2022/01/04 03:08:55;;;;;;;2.97;2.78;;;10.30;99.90;;;;;;2084149;28;20021;-72
2022/01/04 03:09:56;;;;;;;4.78;3.28;;;10.30;99.90;;;;;;2081760;28;20374;-72
2022/01/04 03:10:56;;;;;;;3.40;2.80;;;10.30;99.90;;;;;;2082090;28;20018;-72
2022/01/04 03:11:57;;;;;;;2.85;2.55;;;10.20;99.90;;;;;;2089465;28;20106;-72
2022/01/04 03:12:58;;;;;;;3.58;2.58;;;10.30;99.90;;;;;;2090260;28;20025;-72
2022/01/04 03:13:59;;;;;;;5.10;3.00;;;10.20;99.90;;;;;;2089485;28;20066;-72
2022/01/04 03:14:59;;;;;;;3.80;3.00;;;10.20;99.90;;;;;;2082208;28;20072;-72
2022/01/04 03:16:02;;;;;;;3.17;2.88;;;10.20;99.90;;;;;;2081669;28;20026;-72
2022/01/04 03:17:04;;;;;;;4.32;3.35;;;10.20;99.90;;;;;;2081331;28;20104;-72
2022/01/04 03:18:04;;;;;;;3.95;2.88;;;10.30;99.90;;;;;;2082231;28;20546;-72
2022/01/04 03:19:09;;;;;;;3.95;2.78;;;10.30;99.90;;;;;;2074593;28;20026;-72
2022/01/04 03:20:10;;;;;;;4.43;3.10;;;10.30;99.90;;;;;;2073907;28;20026;-72
2022/01/04 03:21:11;;;;;;;4.90;2.90;;;10.30;99.90;;;;;;2076861;28;20021;-72
2022/01/04 03:22:11;;;;;;;4.60;2.92;;;10.30;99.90;;;;;;2081315;28;20057;-72
2022/01/04 03:23:12;;;;;;;3.17;2.90;;;10.20;99.90;;;;;;2072763;28;20026;-72
2022/01/04 03:24:15;;;;;;;4.00;2.90;;;10.20;99.90;;;;;;2081165;28;20540;-72
2022/01/04 03:25:15;;;;;;;4.55;3.25;;;10.20;99.90;;;;;;2081847;28;20035;-72
2022/01/04 03:26:16;;;;;;;3.83;3.17;;;10.20;99.90;;;;;;2081956;28;20025;-72
2022/01/04 03:27:18;;;;;;;3.45;3.05;;;10.20;99.90;;;;;;2081316;28;20057;-72
2022/01/04 03:28:20;;;;;;;2.92;2.72;;;10.20;99.90;;;;;;2086839;28;20450;-72
2022/01/04 03:29:21;;;;;;;3.08;2.80;;;10.20;99.90;;;;;;2083458;28;20376;-72
2022/01/04 03:30:22;;;;;;;4.25;3.38;;;10.10;99.90;;;;;;2082008;28;20087;-72
2022/01/04 03:31:23;;;;;;;2.55;2.40;;;10.10;99.90;;;;;;2081618;28;20029;-72
2022/01/04 03:32:24;;;;;;;4.38;3.38;;;10.10;99.90;;;;;;2080814;28;20477;-72
2022/01/04 03:33:24;;;;;;;3.22;2.92;;;10.10;99.90;;;;;;2073665;28;20382;-72
2022/01/04 03:34:25;;;;;;;3.65;3.35;;;10.10;99.90;;;;;;2082808;28;20025;-72
2022/01/04 03:35:26;;;;;;;3.78;3.10;;;10.10;99.90;;;;;;2082746;28;20021;-72
2022/01/04 03:36:27;;;;;;;3.65;3.13;;;10.10;99.90;;;;;;2088171;28;20029;-72
2022/01/04 03:37:27;;;;;;;3.28;2.97;;;10.10;99.90;;;;;;2081026;28;20057;-72
2022/01/04 03:38:28;;;;;;;4.55;3.00;;;10.10;99.90;;;;;;2081701;28;20030;-72
2022/01/04 03:39:29;;;;;;;4.68;3.63;;;10.10;99.90;;;;;;2083736;28;20025;-72
2022/01/04 03:40:29;;;;;;;4.65;3.00;;;10.10;99.90;;;;;;2081518;28;20025;-72
2022/01/04 03:41:33;;;;;;;4.40;3.15;;;10.10;99.90;;;;;;2081521;28;20029;-72
2022/01/04 03:42:33;;;;;;;3.30;2.92;;;10.10;99.90;;;;;;2081808;28;20389;-72
2022/01/04 03:43:37;;;;;;;3.30;3.00;;;10.10;99.90;;;;;;2081711;28;20025;-72
2022/01/04 03:44:37;;;;;;;3.53;2.75;;;10.10;99.90;;;;;;2081666;28;20030;-72
2022/01/04 03:45:38;;;;;;;4.55;3.40;;;10.20;99.90;;;;;;2081702;28;20029;-72
2022/01/04 03:46:38;;;;;;;4.63;3.03;;;10.20;99.90;;;;;;2081149;28;20057;-72
2022/01/04 03:47:39;;;;;;;3.05;2.85;;;10.20;99.90;;;;;;2082593;28;20017;-72
2022/01/04 03:48:40;;;;;;;3.63;3.08;;;10.20;99.90;;;;;;2084477;28;20049;-72
2022/01/04 03:49:40;;;;;;;4.50;2.88;;;10.20;99.90;;;;;;2084283;28;20049;-72
2022/01/04 03:50:41;;;;;;;4.05;2.97;;;10.20;99.90;;;;;;2087503;28;20426;-72
2022/01/04 03:51:42;;;;;;;3.53;3.22;;;10.20;99.90;;;;;;2089299;28;20020;-72
2022/01/04 03:52:42;;;;;;;3.75;3.45;;;10.20;99.90;;;;;;2083503;28;20035;-72
2022/01/04 03:53:43;;;;;;;4.35;3.05;;;10.20;99.90;;;;;;2077948;28;20449;-72
2022/01/04 03:54:43;;;;;;;5.60;3.45;;;10.20;99.90;;;;;;2081715;28;20025;-72
2022/01/04 03:55:44;;;;;;;4.25;3.38;;;10.20;99.90;;;;;;2080884;28;20018;-72
2022/01/04 03:56:44;;;;;;;4.20;2.90;;;10.20;99.90;;;;;;2081119;28;20484;-72
2022/01/04 03:57:45;;;;;;;3.65;3.35;;;10.20;99.90;;;;;;2081195;28;20044;-72
2022/01/04 03:58:45;;;;;;;4.05;3.65;;;10.20;99.90;;;;;;2095382;28;20023;-72
2022/01/04 03:59:46;;;;;;;4.82;3.28;;;10.20;99.90;;;;;;2091743;28;20036;-72
2022/01/04 04:00:47;;;;;;;3.50;3.20;;;10.10;99.90;;;;;;2081757;28;20160;-72
2022/01/04 04:01:48;;;;;;;4.00;3.60;;;10.20;99.90;;;;;;2081514;28;20013;-72
2022/01/04 04:02:48;;;;;;;3.60;3.30;;;10.10;99.90;;;;;;2078210;28;20026;-72
2022/01/04 04:03:49;;;;;;;3.45;3.13;;;10.20;99.90;;;;;;2081575;28;20026;-72
2022/01/04 04:04:49;;;;;;;3.15;2.95;;;10.20;99.90;;;;;;2080757;28;20018;-72
2022/01/04 04:05:50;;;;;;;4.88;3.88;;;10.10;99.90;;;;;;2083085;28;20040;-72
2022/01/04 04:06:50;;;;;;;4.35;3.92;;;10.10;99.90;;;;;;2087132;28;20111;-72
2022/01/04 04:07:51;;;;;;;3.95;3.53;;;10.10;99.90;;;;;;2078143;28;20104;-72
2022/01/04 04:08:56;;;;;;;3.97;3.67;;;10.10;99.90;;;;;;2082969;28;20026;-72
2022/01/04 04:09:57;;;;;;;4.20;3.80;;;10.10;99.90;;;;;;2086484;28;20016;-72
2022/01/04 04:10:58;;;;;;;4.20;3.45;;;10.10;99.90;;;;;;2088233;28;20079;-72
2022/01/04 04:11:58;;;;;;;5.38;3.83;;;10.20;99.90;;;;;;2081506;28;20053;-72
2022/01/04 04:12:59;;;;;;;4.35;3.80;;;10.20;99.90;;;;;;2088754;28;20094;-72
2022/01/04 04:13:59;;;;;;;3.80;3.50;;;10.20;99.90;;;;;;2080466;28;20026;-72
2022/01/04 04:15:04;;;;;;;4.22;3.83;;;10.20;99.90;;;;;;2080822;28;20037;-72
2022/01/04 04:16:04;;;;;;;4.53;3.80;;;10.20;99.90;;;;;;2080990;28;20045;-72
2022/01/04 04:17:05;;;;;;;4.13;3.75;;;10.20;99.90;;;;;;2088476;28;20033;-71
2022/01/04 04:18:09;;;;;;;3.40;3.17;;;10.10;99.90;;;;;;2087991;28;20033;-71
2022/01/04 04:19:10;;;;;;;4.88;4.07;;;10.10;99.90;;;;;;2089572;28;20043;-72
2022/01/04 04:20:11;;;;;;;4.07;3.67;;;10.10;99.90;;;;;;2089865;28;20031;-72
2022/01/04 04:21:11;;;;;;;4.28;3.42;;;10.10;99.90;;;;;;2085217;28;20534;-72
2022/01/04 04:22:12;;;;;;;5.10;3.92;;;10.10;99.90;;;;;;2089939;28;20025;-72
2022/01/04 04:23:13;;;;;;;3.50;3.20;;;10.20;99.90;;;;;;2084660;28;20404;-72
2022/01/04 04:24:13;;;;;;;4.15;3.75;;;10.20;99.90;;;;;;2082652;28;20033;-72
2022/01/04 04:25:14;;;;;;;3.65;3.40;;;10.10;99.90;;;;;;2085611;28;20469;-72
2022/01/04 04:26:14;;;;;;;3.95;3.63;;;10.10;99.90;;;;;;2081640;28;20025;-72
2022/01/04 04:27:15;;;;;;;4.25;3.85;;;10.10;99.90;;;;;;2080795;28;20048;-72
2022/01/04 04:28:16;;;;;;;3.95;3.53;;;10.10;99.90;;;;;;2089885;28;20377;-72
2022/01/04 04:29:16;;;;;;;3.75;3.45;;;10.10;99.90;;;;;;2088808;28;20041;-72
2022/01/04 04:30:17;;;;;;;5.00;3.47;;;10.20;99.90;;;;;;2089140;28;20500;-72
2022/01/04 04:31:17;;;;;;;4.10;3.70;;;10.20;99.90;;;;;;2081789;28;20025;-72
2022/01/04 04:32:18;;;;;;;4.30;4.00;;;10.20;99.90;;;;;;2081572;28;20030;-72
2022/01/04 04:33:18;;;;;;;4.32;4.00;;;10.20;99.90;;;;;;2081177;28;20029;-71
2022/01/04 04:34:19;;;;;;;6.18;3.80;;;10.20;99.90;;;;;;2082971;28;20057;-71
2022/01/04 04:35:20;;;;;;;4.70;3.70;;;10.20;99.90;;;;;;2081326;28;20464;-72
2022/01/04 04:36:20;;;;;;;4.13;3.67;;;10.20;99.90;;;;;;2081644;28;20064;-72
2022/01/04 04:37:21;;;;;;;6.10;3.70;;;10.20;99.90;;;;;;2080846;28;20495;-72
2022/01/04 04:38:21;;;;;;;4.85;3.50;;;10.20;99.90;;;;;;2081650;28;20144;-72
2022/01/04 04:39:22;;;;;;;3.42;3.15;;;10.20;99.90;;;;;;2088231;28;20045;-72
2022/01/04 04:40:22;;;;;;;3.83;3.47;;;10.20;99.90;;;;;;2083925;28;20576;-72
2022/01/04 04:41:23;;;;;;;3.63;3.28;;;10.20;99.90;;;;;;2089552;28;20063;-72
2022/01/04 04:42:24;;;;;;;4.28;3.58;;;10.20;99.90;;;;;;2081852;28;20140;-72
2022/01/04 04:43:24;;;;;;;3.80;3.50;;;10.20;99.90;;;;;;2081396;28;20025;-72
2022/01/04 04:44:25;;;;;;;3.47;3.22;;;10.20;99.90;;;;;;2081224;28;20555;-72
2022/01/04 04:45:25;;;;;;;3.85;3.33;;;10.20;99.90;;;;;;2084842;28;20449;-72
2022/01/04 04:46:26;;;;;;;3.88;3.30;;;10.20;99.90;;;;;;2089624;28;20063;-72
2022/01/04 04:47:26;;;;;;;3.88;3.58;;;10.20;99.90;;;;;;2080991;28;20149;-72
2022/01/04 04:48:27;;;;;;;4.15;3.75;;;10.20;99.90;;;;;;2081353;28;20642;-72
2022/01/04 04:49:28;;;;;;;4.30;3.65;;;10.20;99.90;;;;;;2081581;28;20014;-72
2022/01/04 04:50:29;;;;;;;3.30;3.10;;;10.20;99.90;;;;;;2085578;28;20028;-72
2022/01/04 04:51:30;;;;;;;4.03;3.72;;;10.20;99.90;;;;;;2088915;28;20044;-72
2022/01/04 04:52:30;;;;;;;4.32;3.28;;;10.20;99.90;;;;;;2082416;28;20025;-72
2022/01/04 04:53:31;;;;;;;4.03;3.72;;;10.20;99.90;;;;;;2076765;28;20022;-72
2022/01/04 04:54:31;;;;;;;3.97;3.67;;;10.20;99.90;;;;;;2081032;28;20053;-72
2022/01/04 04:55:32;;;;;;;4.45;3.50;;;10.20;99.90;;;;;;2084896;28;20024;-72
2022/01/04 04:56:34;;;;;;;4.85;4.00;;;10.20;99.90;;;;;;2082760;28;20093;-72
2022/01/04 04:57:34;;;;;;;4.15;3.85;;;10.10;99.90;;;;;;2085479;28;20065;-72
2022/01/04 04:58:36;;;;;;;4.40;3.63;;;10.10;99.90;;;;;;2081339;28;20026;-72
2022/01/04 04:59:37;;;;;;;4.13;3.78;;;10.10;99.90;;;;;;2080474;28;20388;-72
2022/01/04 05:00:37;;;;;;;3.95;3.63;;;10.10;99.90;;;;;;2075589;28;20017;-72
2022/01/04 05:01:38;;;;;;;4.63;3.58;;;10.10;99.90;;;;;;2090602;28;20036;-71
2022/01/04 05:02:39;;;;;;;4.13;3.65;;;10.10;99.90;;;;;;2075281;28;20450;-71
2022/01/04 05:03:39;;;;;;;4.03;3.72;;;10.10;99.90;;;;;;2078379;28;20097;-71
2022/01/04 05:04:40;;;;;;;4.60;3.97;;;10.10;99.90;;;;;;2079184;28;20087;-71
2022/01/04 05:05:40;;;;;;;3.92;3.63;;;10.10;99.90;;;;;;2079498;28;20110;-71
2022/01/04 05:06:41;;;;;;;3.63;3.33;;;10.10;99.90;;;;;;2079727;28;20517;-72
2022/01/04 05:07:41;;;;;;;3.83;3.53;;;10.10;99.90;;;;;;2080389;28;20017;-72
2022/01/04 05:08:42;;;;;;;4.47;4.18;;;10.10;99.90;;;;;;2080732;28;20014;-71
2022/01/04 05:09:42;;;;;;;3.80;3.40;;;10.10;99.90;;;;;;2081718;28;20028;-72
2022/01/04 05:10:43;;;;;;;5.15;3.88;;;10.10;99.90;;;;;;2080719;28;20112;-72
2022/01/04 05:11:44;;;;;;;6.40;3.67;;;10.10;99.90;;;;;;2086688;28;20021;-72
2022/01/04 05:12:44;;;;;;;4.68;4.25;;;10.10;99.90;;;;;;2081879;28;20018;-72
2022/01/04 05:13:45;;;;;;;4.57;4.18;;;10.10;99.90;;;;;;2081420;28;20068;-72
2022/01/04 05:14:46;;;;;;;4.70;3.83;;;10.10;99.90;;;;;;2081080;28;20018;-72
2022/01/04 05:15:47;;;;;;;5.05;4.55;;;10.10;99.90;;;;;;2081208;28;20033;-72
2022/01/04 05:16:48;;;;;;;5.85;4.43;;;10.10;99.90;;;;;;2081567;28;20032;-72
2022/01/04 05:17:49;;;;;;;5.15;4.07;;;10.10;99.90;;;;;;2080866;28;20378;-72
2022/01/04 05:18:50;;;;;;;4.35;3.92;;;10.10;99.90;;;;;;2081489;28;20036;-72
2022/01/04 05:19:50;;;;;;;4.18;3.80;;;10.10;99.90;;;;;;2080580;28;20025;-72
2022/01/04 05:20:51;;;;;;;5.18;4.05;;;10.10;99.90;;;;;;2082296;28;20018;-72